createdAt,value
2018-05-16T00:01:39.469Z,39.80
2018-05-16T00:04:28.315Z,44.37
2018-05-16T00:07:07.825Z,34.93
2018-05-16T00:09:57.688Z,43.40
2018-05-16T00:12:39.680Z,40.27
2018-05-16T00:15:19.670Z,37.00
2018-05-16T00:18:01.502Z,39.63
2018-05-16T00:20:40.596Z,47.27
2018-05-16T00:23:15.007Z,42.03
2018-05-16T00:25:54.348Z,40.53
2018-05-16T00:31:15.697Z,41.90
2018-05-16T00:33:55.448Z,41.10
2018-05-16T00:36:35.465Z,41.30
2018-05-16T00:39:16.717Z,41.67
2018-05-16T00:41:58.618Z,53.03
2018-05-16T00:44:39.724Z,38.57
2018-05-16T00:47:20.967Z,41.83
2018-05-16T00:50:02.962Z,43.87
2018-05-16T00:52:44.415Z,43.67
2018-05-16T00:55:26.403Z,46.97
2018-05-16T00:58:08.512Z,40.70
2018-05-16T01:00:51.184Z,46.80
2018-05-16T01:03:30.979Z,58.20
2018-05-16T01:06:13.480Z,43.60
2018-05-16T01:11:43.389Z,46.00
2018-05-16T01:14:23.388Z,50.47
2018-05-16T01:17:02.283Z,39.60
2018-05-16T01:22:15.302Z,46.93
2018-05-16T01:24:58.078Z,53.97
2018-05-16T01:30:16.836Z,48.60
2018-05-16T01:32:57.405Z,52.37
2018-05-16T01:35:37.493Z,50.00
2018-05-16T01:38:17.505Z,40.00
2018-05-16T01:40:57.641Z,46.03
2018-05-16T01:46:16.992Z,47.63
2018-05-16T01:49:03.113Z,43.90
2018-05-16T01:51:53.284Z,50.97
2018-05-16T01:57:15.482Z,66.07
2018-05-16T01:59:47.975Z,56.00
2018-05-16T02:05:10.793Z,43.33
2018-05-16T02:08:01.715Z,53.60
2018-05-16T02:10:41.823Z,55.60
2018-05-16T02:13:23.370Z,47.90
2018-05-16T02:16:13.746Z,44.90
2018-05-16T02:18:52.836Z,48.63
2018-05-16T02:21:34.640Z,51.23
2018-05-16T02:24:14.408Z,56.37
2018-05-16T02:27:05.820Z,52.00
2018-05-16T02:29:48.885Z,54.00
2018-05-16T02:32:29.950Z,53.33
2018-05-16T02:35:11.596Z,54.20
2018-05-16T02:37:50.871Z,58.07
2018-05-16T02:40:32.866Z,57.43
2018-05-16T02:43:17.259Z,57.83
2018-05-16T02:45:58.289Z,58.70
2018-05-16T02:48:40.081Z,66.27
2018-05-16T02:51:21.947Z,58.47
2018-05-16T02:54:03.098Z,62.13
2018-05-16T02:56:42.681Z,59.33
2018-05-16T03:02:04.469Z,60.20
2018-05-16T03:04:46.412Z,71.83
2018-05-16T03:07:28.424Z,64.77
2018-05-16T03:10:10.607Z,83.23
2018-05-16T03:12:54.693Z,62.30
2018-05-16T03:15:37.803Z,64.43
2018-05-16T03:18:17.719Z,67.83
2018-05-16T03:20:59.676Z,65.80
2018-05-16T03:23:41.594Z,70.25
2018-05-16T03:26:23.860Z,59.93
2018-05-16T03:29:05.488Z,60.20
2018-05-16T03:31:49.421Z,62.93
2018-05-16T03:37:11.140Z,62.10
2018-05-16T03:39:54.586Z,61.83
2018-05-16T03:42:42.391Z,65.07
2018-05-16T03:45:25.984Z,59.87
2018-05-16T03:48:08.060Z,68.30
2018-05-16T03:50:50.720Z,68.33
2018-05-16T03:56:11.609Z,60.87
2018-05-16T03:58:57.703Z,66.50
2018-05-16T04:01:40.076Z,64.90
2018-05-16T04:04:21.912Z,68.83
2018-05-16T04:09:43.822Z,60.00
2018-05-16T04:12:24.612Z,56.60
2018-05-16T04:15:07.065Z,55.87
2018-05-16T04:17:49.961Z,64.37
2018-05-16T04:20:29.237Z,63.83
2018-05-16T04:23:11.140Z,61.80
2018-05-16T04:28:38.296Z,66.80
2018-05-16T04:31:19.258Z,62.87
2018-05-16T04:33:59.401Z,58.27
2018-05-16T04:36:40.515Z,62.63
2018-05-16T04:39:22.157Z,58.23
2018-05-16T04:44:41.575Z,66.57
2018-05-16T04:47:23.617Z,71.47
2018-05-16T04:50:05.923Z,67.27
2018-05-16T04:52:46.612Z,66.53
2018-05-16T04:58:08.084Z,60.23
2018-05-16T05:00:49.782Z,71.97
2018-05-16T05:03:32.308Z,60.90
2018-05-16T05:08:56.794Z,60.57
2018-05-16T05:11:37.595Z,62.87
2018-05-16T05:14:18.586Z,62.40
2018-05-16T05:17:05.093Z,60.87
2018-05-16T05:22:24.258Z,69.80
2018-05-16T05:25:06.122Z,64.57
2018-05-16T05:30:26.034Z,72.87
2018-05-16T05:33:28.232Z,61.27
2018-05-16T05:39:13.586Z,64.93
2018-05-16T05:47:36.078Z,72.27
2018-05-16T05:50:18.070Z,67.03
2018-05-16T05:53:25.133Z,63.80
2018-05-16T05:56:06.236Z,85.00
2018-05-16T05:59:06.875Z,66.27
2018-05-16T06:21:33.074Z,44.40
2018-05-16T06:27:23.543Z,52.17
2018-05-16T06:30:04.984Z,49.80
2018-05-16T06:38:30.366Z,40.30
2018-05-16T06:50:18.598Z,30.65
2018-05-16T06:56:06.066Z,32.60
2018-05-16T07:04:55.118Z,33.07
2018-05-16T07:10:34.165Z,40.07
2018-05-16T07:16:28.929Z,33.70
2018-05-16T07:19:11.941Z,41.67
2018-05-16T07:22:00.478Z,86.90
2018-05-16T07:24:43.523Z,41.33
2018-05-16T07:27:34.284Z,32.53
2018-05-16T07:30:26.536Z,28.43
2018-05-16T07:33:07.460Z,24.17
2018-05-16T07:35:49.964Z,22.17
2018-05-16T07:38:37.406Z,20.10
2018-05-16T07:41:20.372Z,20.30
2018-05-16T07:44:00.842Z,22.80
2018-05-16T07:46:48.675Z,26.27
2018-05-16T07:49:34.054Z,22.00
2018-05-16T07:52:27.350Z,23.37
2018-05-16T07:55:08.368Z,22.60
2018-05-16T07:57:36.429Z,28.53
2018-05-16T08:00:18.019Z,26.80
2018-05-16T08:02:58.028Z,16.63
2018-05-16T08:05:40.176Z,18.13
2018-05-16T08:08:22.863Z,20.50
2018-05-16T08:11:04.174Z,21.53
2018-05-16T08:13:45.820Z,25.17
2018-05-16T08:16:28.274Z,29.40
2018-05-16T08:19:11.401Z,28.93
2018-05-16T08:21:53.099Z,25.57
2018-05-16T08:24:36.464Z,20.83
2018-05-16T08:27:18.528Z,24.07
2018-05-16T08:29:59.010Z,23.53
2018-05-16T08:32:44.705Z,26.10
2018-05-16T08:35:27.240Z,21.83
2018-05-16T08:44:23.282Z,38.50
2018-05-16T08:53:07.340Z,41.43
2018-05-16T08:56:06.912Z,53.87
2018-05-16T08:59:55.497Z,62.07
2018-05-16T09:02:46.065Z,67.63
2018-05-16T09:14:36.085Z,72.77
2018-05-16T09:17:22.826Z,71.67
2018-05-16T09:20:05.395Z,71.10
2018-05-16T09:22:47.775Z,72.73
2018-05-16T09:25:43.439Z,66.90
2018-05-16T09:28:24.617Z,58.80
2018-05-16T09:31:05.670Z,52.63
2018-05-16T09:40:05.523Z,41.90
2018-05-16T09:42:56.128Z,45.90
2018-05-16T09:48:41.403Z,47.43
2018-05-16T10:03:26.501Z,69.93
2018-05-16T10:15:15.181Z,75.67
2018-05-16T10:17:56.550Z,69.40
2018-05-16T10:32:45.399Z,82.03
2018-05-16T10:35:45.681Z,79.37
2018-05-16T10:38:34.942Z,77.23
2018-05-16T10:41:27.290Z,69.70
2018-05-16T10:50:37.738Z,77.47
2018-05-16T10:56:26.965Z,89.97
2018-05-16T11:02:05.085Z,77.43
2018-05-16T11:04:46.558Z,75.33
2018-05-16T11:07:29.872Z,69.50
2018-05-16T11:10:11.751Z,63.33
2018-05-16T11:12:54.757Z,71.30
2018-05-16T11:15:38.049Z,73.77
2018-05-16T11:18:18.585Z,79.60
2018-05-16T11:23:52.865Z,70.87
2018-05-16T11:26:34.100Z,67.10
2018-05-16T11:29:19.420Z,71.87
2018-05-16T11:32:00.638Z,78.87
2018-05-16T11:34:48.401Z,77.67
2018-05-16T11:37:35.724Z,73.53
2018-05-16T11:43:28.773Z,80.37
2018-05-16T11:51:29.098Z,86.17
2018-05-16T11:54:16.672Z,79.97
2018-05-16T11:56:59.268Z,73.70
2018-05-16T12:00:00.032Z,79.33
2018-05-16T12:02:43.169Z,71.93
2018-05-16T12:08:22.815Z,74.93
2018-05-16T12:13:44.058Z,73.57
2018-05-16T12:16:33.738Z,77.00
2018-05-16T12:22:07.280Z,77.00
2018-05-16T12:24:46.648Z,80.93
2018-05-16T12:27:25.805Z,78.27
2018-05-16T12:30:07.205Z,81.80
2018-05-16T12:38:24.688Z,87.73
2018-05-16T12:49:34.115Z,74.57
2018-05-16T12:52:07.635Z,70.13
2018-05-16T12:55:33.049Z,78.83
2018-05-16T13:00:55.833Z,67.03
2018-05-16T13:03:38.753Z,66.40
2018-05-16T13:06:11.876Z,87.20
2018-05-16T13:08:45.157Z,72.10
2018-05-16T13:11:20.694Z,70.00
2018-05-16T13:16:49.456Z,65.60
2018-05-16T13:27:56.032Z,72.03
2018-05-16T13:30:31.291Z,79.70
2018-05-16T13:35:55.023Z,64.57
2018-05-16T13:38:22.856Z,80.07
2018-05-16T13:41:00.189Z,72.60
2018-05-16T13:52:23.215Z,68.73
2018-05-16T13:57:43.434Z,70.63
2018-05-16T14:00:17.070Z,72.60
2018-05-16T14:02:46.811Z,72.53
2018-05-16T14:14:02.949Z,59.47
2018-05-16T14:22:46.404Z,50.83
2018-05-16T14:31:16.187Z,44.87
2018-05-16T14:43:04.161Z,44.67
2018-05-16T14:45:50.165Z,50.13
2018-05-16T14:57:40.849Z,55.60
2018-05-16T15:15:39.269Z,49.47
2018-05-16T15:18:22.083Z,54.40
2018-05-16T15:30:09.092Z,45.77
2018-05-16T15:35:56.432Z,49.90
2018-05-16T15:41:27.672Z,44.60
2018-05-16T15:44:20.483Z,42.07
2018-05-16T15:47:05.395Z,48.33
2018-05-16T15:58:01.632Z,46.53
2018-05-16T16:09:25.808Z,53.83
2018-05-16T16:12:12.878Z,52.00
2018-05-16T16:14:56.153Z,45.77
2018-05-16T16:17:37.410Z,49.13
2018-05-16T16:20:19.559Z,54.53
2018-05-16T16:23:02.631Z,54.87
2018-05-16T16:25:48.411Z,46.90
2018-05-16T16:31:30.597Z,62.23
2018-05-16T16:34:12.730Z,64.60
2018-05-16T16:36:56.050Z,42.97
2018-05-16T16:42:31.625Z,55.13
2018-05-16T16:45:12.916Z,52.83
2018-05-16T16:47:52.741Z,47.33
2018-05-16T16:50:37.638Z,50.47
2018-05-16T18:11:40.259Z,66.55
2018-05-16T18:17:23.400Z,49.87
2018-05-16T19:25:47.636Z,84.30
2018-05-16T20:01:49.451Z,47.60
2018-05-16T20:26:33.484Z,62.73
2018-05-16T20:37:38.245Z,62.33
2018-05-16T21:19:56.570Z,40.50
2018-05-16T21:28:47.743Z,40.43
2018-05-16T21:34:36.971Z,39.47
2018-05-16T21:40:32.987Z,41.43
2018-05-16T21:51:47.013Z,48.50
2018-05-16T21:54:29.064Z,41.83
2018-05-16T21:57:16.650Z,37.53
2018-05-16T22:00:07.341Z,32.00
2018-05-16T22:02:48.555Z,38.63
2018-05-16T22:05:49.822Z,32.00
2018-05-16T22:08:32.026Z,30.53
2018-05-16T22:11:15.753Z,29.87
2018-05-16T22:13:55.571Z,41.30
2018-05-16T22:16:37.839Z,37.97
2018-05-16T22:19:19.409Z,33.70
2018-05-16T22:22:00.975Z,41.40
2018-05-16T22:24:42.076Z,47.60
2018-05-16T22:27:30.413Z,32.13
2018-05-16T22:30:10.945Z,34.63
2018-05-16T22:35:57.618Z,32.83
2018-05-16T22:38:38.661Z,35.03
2018-05-16T22:41:28.817Z,40.73
2018-05-16T22:44:14.740Z,32.93
2018-05-16T22:46:56.050Z,43.30
2018-05-16T22:49:36.712Z,37.33
2018-05-16T22:52:18.228Z,70.20
2018-05-16T22:54:58.940Z,56.90
2018-05-16T22:57:40.651Z,37.93
2018-05-16T23:00:27.365Z,41.97
2018-05-16T23:03:08.257Z,47.60
2018-05-16T23:05:47.519Z,62.23
2018-05-16T23:08:27.872Z,63.90
2018-05-16T23:11:09.144Z,67.70
2018-05-16T23:13:50.133Z,60.30
2018-05-16T23:16:35.501Z,62.27
2018-05-16T23:19:16.960Z,56.07
2018-05-16T23:21:57.935Z,71.53
2018-05-16T23:24:49.024Z,54.50
2018-05-16T23:27:30.444Z,62.23
2018-05-16T23:30:12.175Z,53.80
2018-05-16T23:32:53.325Z,74.83
2018-05-16T23:35:37.398Z,81.95
2018-05-16T23:38:16.508Z,65.00
2018-05-16T23:40:57.205Z,94.40
2018-05-16T23:43:37.142Z,96.90
